Time;durP1;ratioP1;P1;durP2;ratioP2;P2;SDS_P1;SDS_P2;PMS_P1;PMS_P2;Temp;Humidity;BMP_temperature;BMP_pressure;BME280_temperature;BME280_humidity;BME280_pressure;Samples;Min_cycle;Max_cycle;Signal;HPM_P1;HPM_P2
2022/11/16 00:01:11;;;;;;;2.22;0.75;;;;;;;17.79;100.00;97233.94;7394098;19;20006;-54
2022/11/16 00:03:38;;;;;;;0.60;0.17;;;;;;;17.72;100.00;97240.44;7394427;19;20032;-53
2022/11/16 00:06:06;;;;;;;4.07;1.00;;;;;;;17.80;100.00;97231.88;7392932;19;20010;-54
2022/11/16 00:08:35;;;;;;;0.63;0.32;;;;;;;17.70;100.00;97245.16;7393254;19;20508;-53
2022/11/16 00:11:10;;;;;;;5.28;0.93;;;;;;;17.50;100.00;97247.16;7394721;19;20018;-53
2022/11/16 00:13:38;;;;;;;1.98;0.40;;;;;;;17.52;100.00;97246.59;7393615;19;20474;-54
2022/11/16 00:16:05;;;;;;;1.20;0.75;;;;;;;17.50;100.00;97247.16;7392876;19;20010;-54
2022/11/16 00:18:32;;;;;;;0.43;0.38;;;;;;;17.40;100.00;97254.78;7392934;19;20010;-54
2022/11/16 00:20:58;;;;;;;1.35;0.60;;;;;;;17.30;100.00;97251.19;7391314;19;20015;-54
2022/11/16 00:23:25;;;;;;;0.10;0.10;;;;;;;17.19;100.00;97263.72;7390154;19;20010;-54
2022/11/16 00:25:52;;;;;;;0.20;0.20;;;;;;;17.44;100.00;97260.72;7391641;19;20006;-54
2022/11/16 00:28:18;;;;;;;1.63;0.40;;;;;;;17.35;100.00;97261.41;7391146;19;20493;-54
2022/11/16 00:30:46;;;;;;;1.77;1.08;;;;;;;17.38;100.00;97263.06;7391330;19;20014;-54
2022/11/16 00:33:15;;;;;;;1.00;0.77;;;;;;;16.96;100.00;97260.47;7392017;19;20014;-54
2022/11/16 00:35:41;;;;;;;2.67;0.55;;;;;;;16.99;100.00;97272.63;7392512;19;20027;-54
2022/11/16 00:38:07;;;;;;;1.02;0.40;;;;;;;16.72;100.00;97272.56;7392350;19;20014;-54
2022/11/16 00:40:34;;;;;;;2.55;0.68;;;;;;;18.03;100.00;97266.75;7390821;19;20014;-54
2022/11/16 00:43:00;;;;;;;0.45;0.30;;;;;;;16.78;100.00;97272.31;7391005;19;20014;-54
2022/11/16 00:45:27;;;;;;;2.05;0.68;;;;;;;17.26;100.00;97267.75;7394363;19;20021;-54
2022/11/16 00:47:53;;;;;;;2.40;0.60;;;;;;;17.41;100.00;97273.91;7390373;19;20065;-54
2022/11/16 00:50:19;;;;;;;0.13;0.13;;;;;;;17.20;100.00;97275.69;7391453;19;20007;-54
2022/11/16 00:52:45;;;;;;;0.30;0.30;;;;;;;17.94;100.00;97275.91;7391739;19;20352;-54
2022/11/16 00:55:11;;;;;;;1.20;0.90;;;;;;;18.24;100.00;97277.47;7391539;19;20025;-54
2022/11/16 00:57:38;;;;;;;0.95;0.20;;;;;;;18.33;100.00;97276.00;7391093;19;20022;-54
2022/11/16 01:00:04;;;;;;;0.45;0.45;;;;;;;18.37;100.00;97276.28;7389517;19;20011;-54
2022/11/16 01:02:32;;;;;;;0.80;0.38;;;;;;;18.35;100.00;97284.59;7393747;19;20337;-54
2022/11/16 01:04:59;;;;;;;0.52;0.25;;;;;;;18.39;100.00;97282.84;7389025;19;20015;-54
2022/11/16 01:07:25;;;;;;;3.75;0.63;;;;;;;18.23;100.00;97272.44;7389310;19;20014;-54
2022/11/16 01:09:51;;;;;;;0.38;0.22;;;;;;;18.16;100.00;97271.97;7387456;19;20015;-54
2022/11/16 01:12:17;;;;;;;0.60;0.60;;;;;;;18.62;100.00;97279.63;7392937;19;20015;-54
2022/11/16 01:14:46;;;;;;;0.40;0.40;;;;;;;18.72;100.00;97274.72;7387266;19;20354;-54
2022/11/16 01:17:14;;;;;;;2.58;1.10;;;;;;;18.79;100.00;97271.00;7388372;19;20039;-54
2022/11/16 01:19:40;;;;;;;0.65;0.28;;;;;;;18.64;100.00;97279.78;7389608;19;20016;-54
2022/11/16 01:22:07;;;;;;;0.40;0.38;;;;;;;18.75;100.00;97279.91;7389962;19;20078;-54
2022/11/16 01:24:34;;;;;;;4.75;0.63;;;;;;;18.64;100.00;97274.13;7389146;19;20048;-54
2022/11/16 01:27:00;;;;;;;0.65;0.38;;;;;;;18.67;100.00;97270.88;7386877;19;20166;-54
2022/11/16 01:29:30;;;;;;;1.27;0.47;;;;;;;18.72;100.00;97269.84;7386990;19;20010;-54
2022/11/16 01:31:59;;;;;;;3.60;0.50;;;;;;;18.76;100.00;97260.91;7390616;19;20044;-54
2022/11/16 01:34:26;;;;;;;1.40;0.50;;;;;;;18.72;100.00;97269.84;7391821;19;20010;-54
2022/11/16 01:36:57;;;;;;;0.60;0.55;;;;;;;18.72;100.00;97264.19;7386866;19;20031;-54
2022/11/16 01:39:26;;;;;;;1.90;0.50;;;;;;;18.62;100.00;97268.34;7385110;19;20018;-54
2022/11/16 01:41:56;;;;;;;1.07;0.43;;;;;;;18.50;100.00;97275.91;7388495;19;20014;-54
2022/11/16 01:44:32;;;;;;;0.85;0.85;;;;;;;18.51;100.00;97269.69;7387931;19;20070;-54
2022/11/16 01:47:11;;;;;;;1.50;1.00;;;;;;;18.43;100.00;97273.94;7386215;19;20015;-54
2022/11/16 01:50:05;;;;;;;1.00;0.63;;;;;;;18.10;100.00;97265.88;7385935;19;20010;-54
2022/11/16 01:52:38;;;;;;;1.95;0.28;;;;;;;18.04;100.00;97259.78;7385995;19;20030;-55
2022/11/16 01:55:05;;;;;;;2.05;0.75;;;;;;;17.95;100.00;97266.13;7386016;19;20011;-55
2022/11/16 01:57:45;;;;;;;1.05;0.68;;;;;;;17.74;100.00;97263.09;7385708;19;20436;-54
2022/11/16 02:00:13;;;;;;;19.15;1.48;;;;;;;17.77;100.00;97264.75;7384482;19;20468;-54
2022/11/16 02:03:02;;;;;;;2.50;1.05;;;;;;;17.71;100.00;97266.38;7385363;19;20412;-55
2022/11/16 02:06:04;;;;;;;1.33;0.95;;;;;;;17.82;100.00;97260.91;7385900;19;20034;-54
2022/11/16 02:12:01;;;;;;;0.30;0.10;;;;;;;17.70;100.00;97265.63;7238330;19;2918717;-54
2022/11/16 02:15:03;;;;;;;1.48;0.85;;;;;;;17.85;100.00;97262.56;7385321;19;20014;-54
2022/11/16 02:17:50;;;;;;;0.75;0.47;;;;;;;17.80;100.00;97260.75;7385554;19;20018;-54
2022/11/16 02:20:33;;;;;;;0.73;0.45;;;;;;;17.81;100.00;97258.69;7385081;19;20021;-54
2022/11/16 02:23:12;;;;;;;0.57;0.57;;;;;;;17.81;100.00;97262.25;7385341;19;20048;-54
2022/11/16 02:26:16;;;;;;;1.52;0.15;;;;;;;17.66;100.00;97262.50;7386987;19;20018;-54
2022/11/16 02:29:08;;;;;;;1.05;0.22;;;;;;;17.68;100.00;97265.47;7389233;19;20011;-55
2022/11/16 02:31:39;;;;;;;0.20;0.20;;;;;;;17.69;100.00;97266.97;7389899;19;20014;-55
2022/11/16 02:34:09;;;;;;;0.57;0.40;;;;;;;17.68;100.00;97253.44;7390970;19;20042;-55
2022/11/16 02:36:40;;;;;;;1.30;0.35;;;;;;;17.52;100.00;97252.94;7386182;19;20014;-54
2022/11/16 02:39:11;;;;;;;2.27;1.03;;;;;;;17.40;100.00;97251.97;7385804;19;20014;-54
2022/11/16 02:41:42;;;;;;;0.73;0.57;;;;;;;17.39;100.00;97244.84;7388798;19;20011;-55
2022/11/16 02:44:25;;;;;;;2.67;0.77;;;;;;;17.44;100.00;97241.78;7388623;19;20009;-55
2022/11/16 02:46:54;;;;;;;;;;;;;;;17.55;100.00;97251.03;7395106;19;20431;-55
2022/11/16 02:49:22;;;;;;;1.02;0.60;;;;;;;17.58;100.00;97245.00;7394428;19;20343;-55
2022/11/16 02:51:51;;;;;;;0.55;0.43;;;;;;;17.56;100.00;97249.72;7396954;19;20011;-55
2022/11/16 02:54:19;;;;;;;0.75;0.73;;;;;;;17.50;100.00;97249.22;7395923;19;20015;-55
2022/11/16 02:57:00;;;;;;;0.60;0.60;;;;;;;17.38;100.00;97249.00;7392359;19;20514;-55
2022/11/16 03:00:00;;;;;;;3.63;0.82;;;;;;;17.23;100.00;97249.22;7393716;19;20110;-55
2022/11/16 03:03:05;;;;;;;1.02;0.93;;;;;;;17.06;100.00;97249.28;7392811;19;20348;-55
2022/11/16 03:05:39;;;;;;;0.90;0.55;;;;;;;17.00;100.00;97255.16;7393196;19;20021;-55
2022/11/16 03:08:13;;;;;;;0.10;0.10;;;;;;;16.97;100.00;97249.97;7392952;19;20014;-55
2022/11/16 03:13:32;;;;;;;1.88;1.02;;;;;;;17.02;100.00;97240.53;7393160;19;20735;-55
2022/11/16 03:16:03;;;;;;;0.30;0.30;;;;;;;16.93;100.00;97256.03;7392606;19;20034;-55
2022/11/16 03:18:30;;;;;;;0.93;0.73;;;;;;;16.84;100.00;97247.50;7393128;19;20017;-55
2022/11/16 03:21:10;;;;;;;0.20;0.20;;;;;;;16.79;100.00;97256.94;7394057;19;20007;-55
2022/11/16 03:23:36;;;;;;;4.88;1.00;;;;;;;16.89;100.00;97252.13;7392251;19;20033;-55
2022/11/16 03:26:07;;;;;;;0.80;0.60;;;;;;;16.75;100.00;97251.75;7393464;19;20027;-55
2022/11/16 03:28:48;;;;;;;0.40;0.17;;;;;;;17.08;100.00;97261.44;7393770;19;20007;-55
2022/11/16 03:31:30;;;;;;;1.10;0.82;;;;;;;17.13;100.00;97262.50;7396797;19;20007;-55
2022/11/16 03:34:02;;;;;;;0.10;0.10;;;;;;;17.09;100.00;97256.53;7395962;19;20353;-55
2022/11/16 03:36:34;;;;;;;0.30;0.30;;;;;;;17.15;100.00;97257.75;7393858;19;20013;-55
2022/11/16 03:39:07;;;;;;;1.17;0.50;;;;;;;17.27;100.00;97263.59;7393098;19;20011;-55
2022/11/16 03:41:38;;;;;;;0.30;0.20;;;;;;;17.20;100.00;97251.13;7395110;19;20460;-55
2022/11/16 03:44:07;;;;;;;2.27;0.37;;;;;;;17.11;100.00;97253.88;7391928;19;20011;-55
2022/11/16 03:46:34;;;;;;;0.10;0.10;;;;;;;17.00;100.00;97243.19;7392391;19;20246;-55
2022/11/16 03:49:00;;;;;;;0.55;0.43;;;;;;;16.90;100.00;97239.56;7393315;19;20015;-55
2022/11/16 03:51:31;;;;;;;0.40;0.30;;;;;;;16.76;100.00;97236.38;7395233;19;20014;-55
2022/11/16 03:53:57;;;;;;;1.23;0.10;;;;;;;16.62;100.00;97238.78;7391909;19;20024;-55
2022/11/16 03:56:23;;;;;;;0.10;0.10;;;;;;;16.60;100.00;97235.06;7392681;19;20019;-55
2022/11/16 03:58:49;;;;;;;0.65;0.40;;;;;;;16.46;100.00;97231.06;7391574;19;20007;-55
2022/11/16 04:01:17;;;;;;;0.38;0.38;;;;;;;16.40;100.00;97227.75;7393506;19;20774;-55
2022/11/16 04:03:44;;;;;;;4.53;0.22;;;;;;;16.46;100.00;97228.25;7393314;19;20006;-55
2022/11/16 04:25:49;;;;;;;0.50;0.20;;;;;;;16.65;100.00;97229.16;7392159;19;20007;-55
2022/11/16 04:28:22;;;;;;;0.20;0.20;;;;;;;16.68;100.00;97233.63;7389586;19;20025;-55
2022/11/16 04:39:25;;;;;;;12.35;0.55;;;;;;;16.48;100.00;97234.78;7390566;19;20041;-55
2022/11/16 04:47:24;;;;;;;0.10;0.10;;;;;;;16.45;100.00;97238.00;7389463;19;20356;-55
2022/11/16 04:49:50;;;;;;;0.40;0.40;;;;;;;16.42;100.00;97234.28;7390461;19;20415;-55
2022/11/16 04:52:17;;;;;;;0.10;0.10;;;;;;;16.37;100.00;97234.56;7394315;19;20010;-55
2022/11/16 04:54:44;;;;;;;0.68;0.32;;;;;;;16.25;100.00;97228.69;7390351;19;20017;-55
2022/11/16 04:57:11;;;;;;;1.33;0.57;;;;;;;16.14;100.00;97225.63;7389338;19;20014;-55
2022/11/16 04:59:37;;;;;;;0.20;0.10;;;;;;;16.04;100.00;97219.91;7389708;19;20093;-55
2022/11/16 05:02:09;;;;;;;0.10;0.00;;;;;;;15.96;100.00;97221.31;7393587;19;20602;-55
2022/11/16 05:04:55;;;;;;;0.10;0.10;;;;;;;15.89;100.00;97231.28;7388705;19;20025;-55
2022/11/16 05:07:22;;;;;;;2.88;0.20;;;;;;;15.96;100.00;97233.28;7389050;19;20560;-55
2022/11/16 05:09:50;;;;;;;0.10;0.10;;;;;;;15.98;100.00;97222.22;7389387;19;20011;-55
2022/11/16 05:12:26;;;;;;;0.20;0.20;;;;;;;15.94;100.00;97228.25;7392930;19;20017;-55
2022/11/16 05:14:56;;;;;;;0.30;0.20;;;;;;;15.90;100.00;97227.16;7389432;19;20018;-55
2022/11/16 05:17:26;;;;;;;1.70;1.13;;;;;;;15.97;100.00;97236.81;7389205;19;20026;-55
2022/11/16 05:22:54;;;;;;;0.28;0.28;;;;;;;16.00;100.00;97225.22;7388768;19;20023;-55
2022/11/16 05:25:22;;;;;;;0.30;0.10;;;;;;;16.05;100.00;97227.00;7389184;19;20803;-55
2022/11/16 05:27:48;;;;;;;2.10;0.30;;;;;;;16.05;100.00;97227.00;7389432;19;20073;-55
2022/11/16 05:30:15;;;;;;;0.73;0.50;;;;;;;16.08;100.00;97231.47;7389346;19;20102;-55
2022/11/16 05:32:42;;;;;;;0.17;0.15;;;;;;;15.98;100.00;97229.91;7390086;19;20026;-55
2022/11/16 05:35:09;;;;;;;1.45;0.57;;;;;;;16.02;100.00;97219.75;7388943;19;20428;-56
2022/11/16 05:37:37;;;;;;;0.80;0.57;;;;;;;15.95;100.00;97223.38;7387460;19;20467;-55
2022/11/16 05:40:04;;;;;;;0.30;0.25;;;;;;;15.82;100.00;97234.91;7389607;19;20011;-55
2022/11/16 05:42:39;;;;;;;0.10;0.10;;;;;;;15.69;100.00;97223.97;7388226;19;20014;-55
2022/11/16 05:45:06;;;;;;;0.10;0.08;;;;;;;15.59;100.00;97221.06;7391473;19;20010;-55
2022/11/16 05:47:33;;;;;;;1.05;0.75;;;;;;;15.51;100.00;97225.25;7388944;19;20029;-55
2022/11/16 05:49:59;;;;;;;1.00;0.40;;;;;;;15.46;100.00;97227.00;7388717;19;20017;-55
2022/11/16 05:52:30;;;;;;;0.30;0.30;;;;;;;15.38;100.00;97223.44;7393230;19;20015;-55
2022/11/16 05:55:01;;;;;;;2.92;1.10;;;;;;;15.34;100.00;97222.34;7387451;19;20302;-55
2022/11/16 05:57:29;;;;;;;0.30;0.15;;;;;;;15.30;100.00;97222.00;7387360;19;20010;-55
2022/11/16 05:59:56;;;;;;;0.20;0.20;;;;;;;15.30;100.00;97213.59;7388344;19;20341;-56
2022/11/16 06:02:22;;;;;;;2.60;0.73;;;;;;;15.23;100.00;97214.38;7393696;19;20026;-55
2022/11/16 06:04:48;;;;;;;0.10;0.10;;;;;;;15.17;100.00;97221.00;7390205;19;20018;-56
2022/11/16 06:07:14;;;;;;;1.05;0.50;;;;;;;15.05;100.00;97219.94;7387538;19;20014;-55
2022/11/16 06:09:40;;;;;;;2.33;0.68;;;;;;;14.95;100.00;97221.13;7386853;19;20626;-55
2022/11/16 06:12:15;;;;;;;0.25;0.25;;;;;;;14.78;100.00;97218.97;7390412;19;20033;-56
2022/11/16 06:14:41;;;;;;;0.30;0.30;;;;;;;14.91;100.00;97220.75;7388308;19;20027;-56
2022/11/16 06:17:07;;;;;;;0.10;0.10;;;;;;;14.96;100.00;97217.00;7388096;19;20437;-56
2022/11/16 06:19:33;;;;;;;3.17;0.38;;;;;;;14.93;100.00;97218.88;7395415;19;20390;-56
2022/11/16 06:22:00;;;;;;;1.02;0.75;;;;;;;14.95;100.00;97233.06;7400742;19;20015;-56
2022/11/16 06:24:28;;;;;;;0.73;0.20;;;;;;;14.93;100.00;97241.31;7392528;19;20033;-56
2022/11/16 06:26:55;;;;;;;3.92;0.22;;;;;;;14.95;100.00;97232.31;7395139;19;20015;-56
2022/11/16 06:29:21;;;;;;;1.40;0.60;;;;;;;15.10;100.00;97226.63;7394675;19;20014;-56
2022/11/16 06:31:47;;;;;;;0.17;0.17;;;;;;;15.18;100.00;97222.47;7397401;19;20468;-56
2022/11/16 06:34:14;;;;;;;0.60;0.50;;;;;;;15.33;100.00;97220.88;7400547;19;20487;-56
2022/11/16 06:36:40;;;;;;;0.10;0.10;;;;;;;15.44;100.00;97217.66;7393912;19;20010;-56
2022/11/16 06:39:06;;;;;;;0.30;0.10;;;;;;;15.34;100.00;97222.34;7395035;19;20030;-55
2022/11/16 06:41:35;;;;;;;0.22;0.22;;;;;;;15.43;100.00;97232.94;7397090;19;20018;-56
2022/11/16 06:44:02;;;;;;;1.33;0.63;;;;;;;15.47;100.00;97236.88;7394919;19;20082;-56
2022/11/16 06:46:33;;;;;;;0.28;0.28;;;;;;;15.51;100.00;97230.84;7393939;19;20027;-55
2022/11/16 06:48:59;;;;;;;1.85;0.40;;;;;;;15.46;100.00;97229.03;7395029;19;20042;-56
2022/11/16 06:51:25;;;;;;;1.45;0.55;;;;;;;15.25;100.00;97225.78;7395854;19;20048;-55
2022/11/16 06:53:52;;;;;;;1.85;0.47;;;;;;;15.14;100.00;97227.72;7398124;19;20057;-55
2022/11/16 06:56:19;;;;;;;2.03;0.40;;;;;;;15.05;100.00;97228.34;7394892;19;20011;-55
2022/11/16 06:58:51;;;;;;;2.03;0.88;;;;;;;15.13;100.00;97226.25;7397351;19;20011;-55
2022/11/16 07:01:17;;;;;;;1.75;0.52;;;;;;;15.12;100.00;97238.75;7396969;19;20360;-55
2022/11/16 07:03:46;;;;;;;0.10;0.10;;;;;;;15.14;100.00;97241.75;7395003;19;20011;-55
2022/11/16 07:06:13;;;;;;;0.40;0.40;;;;;;;15.09;100.00;97236.38;7398729;19;20018;-55
2022/11/16 07:08:42;;;;;;;2.45;0.45;;;;;;;15.02;100.00;97239.94;7396243;19;20981;-55
2022/11/16 07:11:10;;;;;;;1.17;0.40;;;;;;;15.06;100.00;97232.63;7395764;19;20034;-55
2022/11/16 07:13:37;;;;;;;0.20;0.20;;;;;;;15.06;100.00;97241.03;7396640;19;20014;-55
2022/11/16 07:16:07;;;;;;;2.47;0.70;;;;;;;14.83;100.00;97243.25;7397472;19;20007;-55
2022/11/16 07:18:35;;;;;;;5.82;1.15;;;;;;;14.93;100.00;97241.31;7393743;19;20010;-55
2022/11/16 07:21:10;;;;;;;4.70;0.47;;;;;;;14.89;100.00;97235.34;7394849;19;20047;-55
2022/11/16 07:23:37;;;;;;;0.65;0.30;;;;;;;14.95;100.00;97235.88;7391949;19;20112;-55
2022/11/16 07:26:06;;;;;;;0.32;0.32;;;;;;;14.94;100.00;97247.66;7393768;19;20011;-55
2022/11/16 07:28:44;;;;;;;1.65;0.38;;;;;;;15.07;100.00;97233.38;7391600;19;20021;-55
2022/11/16 07:31:12;;;;;;;4.57;0.65;;;;;;;15.27;100.00;97249.13;7393060;19;20047;-55
2022/11/16 07:33:40;;;;;;;1.85;0.57;;;;;;;15.13;100.00;97242.31;7395112;19;20038;-55
2022/11/16 07:36:13;;;;;;;0.10;0.10;;;;;;;15.14;100.00;97238.94;7394487;19;20018;-55
2022/11/16 07:38:40;;;;;;;0.88;0.88;;;;;;;15.12;100.00;97247.19;7392748;19;20010;-56
2022/11/16 07:41:10;;;;;;;0.20;0.20;;;;;;;15.31;100.00;97257.16;7393647;19;20033;-55
2022/11/16 07:43:41;;;;;;;0.30;0.28;;;;;;;15.32;100.00;97258.63;7389869;19;20011;-56
2022/11/16 07:46:20;;;;;;;0.82;0.52;;;;;;;15.47;100.00;97247.34;7390790;19;20018;-55
2022/11/16 07:48:46;;;;;;;1.27;0.70;;;;;;;15.31;100.00;97251.56;7392498;19;20007;-55
2022/11/16 07:51:16;;;;;;;0.10;0.10;;;;;;;15.49;100.00;97251.06;7395281;19;20031;-55
2022/11/16 07:53:56;;;;;;;5.78;1.42;;;;;;;15.50;100.00;97261.00;7391363;19;20356;-55
2022/11/16 07:56:24;;;;;;;1.20;0.30;;;;;;;15.62;100.00;97258.44;7392248;19;20015;-55
2022/11/16 07:58:50;;;;;;;0.68;0.30;;;;;;;15.52;100.00;97261.16;7392672;19;20010;-55
2022/11/16 08:01:17;;;;;;;0.57;0.38;;;;;;;15.63;100.00;97268.38;7393699;19;20015;-55
2022/11/16 08:03:45;;;;;;;3.88;1.10;;;;;;;15.64;100.00;97267.03;7393639;19;20010;-56
2022/11/16 08:06:16;;;;;;;4.63;0.95;;;;;;;15.68;100.00;97267.41;7390209;19;20017;-55
2022/11/16 08:08:43;;;;;;;2.55;0.77;;;;;;;15.70;100.00;97265.50;7391865;19;20098;-54
2022/11/16 08:11:11;;;;;;;1.35;0.38;;;;;;;15.65;100.00;97257.31;7393330;19;20011;-54
2022/11/16 08:13:39;;;;;;;3.72;0.38;;;;;;;15.74;100.00;97265.81;7391611;19;20082;-55
2022/11/16 08:16:14;;;;;;;5.00;0.63;;;;;;;15.69;100.00;97266.06;7391842;19;20014;-55
2022/11/16 08:18:42;;;;;;;2.47;0.80;;;;;;;15.78;100.00;97257.78;7391759;19;20017;-55
2022/11/16 08:21:10;;;;;;;0.63;0.55;;;;;;;15.75;100.00;97258.16;7393172;19;20018;-55
2022/11/16 08:23:43;;;;;;;1.67;0.82;;;;;;;15.74;100.00;97259.50;7388955;19;20007;-55
2022/11/16 08:26:15;;;;;;;1.67;0.55;;;;;;;15.71;100.00;97261.38;7390359;19;20030;-55
2022/11/16 08:28:47;;;;;;;2.05;0.45;;;;;;;15.60;100.00;97261.84;7391104;19;20025;-55
2022/11/16 08:31:19;;;;;;;0.30;0.20;;;;;;;15.78;100.00;97254.22;7393024;19;20007;-55
2022/11/16 08:33:47;;;;;;;0.95;0.32;;;;;;;15.87;100.00;97262.72;7393362;19;20014;-55
2022/11/16 08:36:16;;;;;;;0.63;0.43;;;;;;;15.85;100.00;97264.63;7391122;19;20014;-55
2022/11/16 08:38:48;;;;;;;2.83;0.38;;;;;;;15.60;100.00;97261.09;7390702;19;20011;-55
2022/11/16 08:41:16;;;;;;;3.20;0.80;;;;;;;15.55;100.00;97270.50;7391268;19;20010;-55
2022/11/16 08:43:43;;;;;;;2.47;0.57;;;;;;;16.11;100.00;97258.41;7389655;19;20006;-55
2022/11/16 08:46:10;;;;;;;1.23;0.60;;;;;;;16.14;100.00;97262.88;7390177;19;20017;-55
2022/11/16 08:48:39;;;;;;;3.15;1.23;;;;;;;16.23;100.00;97253.78;7390333;19;20014;-55
2022/11/16 08:51:08;;;;;;;0.30;0.20;;;;;;;16.28;100.00;97257.69;7391687;19;20010;-55
2022/11/16 08:53:35;;;;;;;0.75;0.55;;;;;;;16.30;100.00;97258.59;7389509;19;20018;-55
2022/11/16 08:56:04;;;;;;;1.75;0.85;;;;;;;16.58;100.00;97260.94;7389242;19;20010;-55
2022/11/16 08:58:30;;;;;;;0.82;0.47;;;;;;;16.70;100.00;97257.63;7389567;19;20820;-55
2022/11/16 09:00:57;;;;;;;2.38;0.82;;;;;;;16.73;100.00;97253.63;7390104;19;20491;-55
2022/11/16 09:03:23;;;;;;;0.30;0.30;;;;;;;16.75;100.00;97256.59;7392416;19;20074;-55
2022/11/16 09:05:49;;;;;;;5.13;1.00;;;;;;;16.76;100.00;97260.91;7391752;19;20016;-55
2022/11/16 09:08:15;;;;;;;0.65;0.65;;;;;;;16.80;100.00;97258.44;7391095;19;20014;-55
2022/11/16 09:10:41;;;;;;;0.20;0.10;;;;;;;16.77;100.00;97259.59;7391192;19;20019;-55
2022/11/16 09:13:07;;;;;;;3.30;0.30;;;;;;;16.74;100.00;97257.94;7391058;19;20025;-55
2022/11/16 09:15:33;;;;;;;7.88;0.50;;;;;;;16.70;100.00;97254.81;7391464;19;20015;-55
2022/11/16 09:17:59;;;;;;;0.30;0.30;;;;;;;16.70;100.00;97246.38;7389439;19;20070;-55
2022/11/16 09:20:26;;;;;;;0.30;0.30;;;;;;;16.70;100.00;97243.56;7390961;19;20465;-55
2022/11/16 09:22:52;;;;;;;1.00;0.73;;;;;;;16.68;100.00;97242.06;7390344;19;20535;-55
2022/11/16 09:25:18;;;;;;;0.57;0.38;;;;;;;16.72;100.00;97241.66;7390857;19;20655;-55
2022/11/16 09:27:44;;;;;;;1.55;0.57;;;;;;;16.78;100.00;97235.78;7390085;19;20010;-55
2022/11/16 09:30:10;;;;;;;1.05;0.20;;;;;;;16.83;100.00;97235.50;7390238;19;20014;-55
2022/11/16 09:32:37;;;;;;;0.73;0.73;;;;;;;16.86;100.00;97233.59;7391927;19;20015;-55
2022/11/16 09:35:03;;;;;;;4.57;0.65;;;;;;;16.86;100.00;97233.59;7390653;19;20011;-55
2022/11/16 09:37:29;;;;;;;0.20;0.20;;;;;;;16.77;100.00;97234.28;7390307;19;20011;-55
2022/11/16 09:39:57;;;;;;;0.73;0.47;;;;;;;16.80;100.00;97233.13;7389037;19;20014;-55
2022/11/16 09:42:28;;;;;;;0.20;0.10;;;;;;;16.88;100.00;97242.94;7391084;19;20759;-55
2022/11/16 09:45:10;;;;;;;6.70;1.13;;;;;;;16.99;100.00;97247.31;7392418;19;20092;-55
2022/11/16 09:47:43;;;;;;;1.80;0.22;;;;;;;17.15;100.00;97246.50;7389879;19;20022;-55
2022/11/16 09:50:28;;;;;;;2.72;0.52;;;;;;;17.24;100.00;97247.88;7387835;19;20012;-55
2022/11/16 09:53:02;;;;;;;0.20;0.20;;;;;;;17.21;100.00;97246.25;7388933;19;20081;-55
2022/11/16 09:55:46;;;;;;;0.10;0.00;;;;;;;17.14;100.00;97247.84;7386879;19;20022;-55
2022/11/16 09:58:39;;;;;;;4.65;1.13;;;;;;;17.13;100.00;97246.34;7387547;19;20062;-55
2022/11/16 10:01:19;;;;;;;0.10;0.10;;;;;;;17.05;100.00;97245.72;7391262;19;20091;-56
2022/11/16 10:03:50;;;;;;;0.45;0.10;;;;;;;17.03;100.00;97248.38;7391838;19;20007;-55
2022/11/16 10:06:21;;;;;;;0.40;0.40;;;;;;;17.14;100.00;97252.72;7389129;19;20133;-55
2022/11/16 10:08:55;;;;;;;0.30;0.30;;;;;;;17.15;100.00;97251.41;7389292;19;20232;-56
2022/11/16 10:11:39;;;;;;;0.10;0.10;;;;;;;17.10;100.00;97246.78;7390833;19;20505;-55
2022/11/16 10:14:14;;;;;;;0.10;0.10;;;;;;;17.14;100.00;97249.91;7388149;19;20033;-56
2022/11/16 10:16:57;;;;;;;0.30;0.22;;;;;;;17.31;100.00;97255.47;7389117;19;20019;-55
2022/11/16 10:19:41;;;;;;;0.35;0.30;;;;;;;17.27;100.00;97249.53;7389078;19;20018;-55
2022/11/16 10:22:45;;;;;;;1.80;0.43;;;;;;;17.26;100.00;97243.16;7392945;19;20019;-55
2022/11/16 10:25:14;;;;;;;0.50;0.30;;;;;;;17.36;100.00;97231.97;7385720;19;20048;-55
2022/11/16 10:27:54;;;;;;;0.10;0.10;;;;;;;17.55;100.00;97234.88;7384833;19;20011;-55
2022/11/16 10:30:21;;;;;;;1.45;0.47;;;;;;;17.64;100.00;97225.75;7387942;19;20010;-56
2022/11/16 10:32:53;;;;;;;0.15;0.15;;;;;;;17.63;100.00;97229.88;7390204;19;20034;-55
2022/11/16 10:35:44;;;;;;;1.85;1.10;;;;;;;17.67;100.00;97241.44;7388577;19;20011;-55
2022/11/16 10:38:13;;;;;;;2.00;0.20;;;;;;;17.59;100.00;97237.25;7388085;19;20361;-56
2022/11/16 10:40:40;;;;;;;0.20;0.20;;;;;;;17.41;100.00;97231.69;7389877;19;20038;-55
2022/11/16 10:43:13;;;;;;;0.57;0.20;;;;;;;17.25;100.00;97230.44;7387218;19;20013;-55
2022/11/16 10:46:16;;;;;;;0.40;0.40;;;;;;;17.57;100.00;97242.75;7391925;19;20035;-55
2022/11/16 10:48:48;;;;;;;1.58;0.75;;;;;;;17.42;100.00;97227.56;7387953;19;20030;-56
2022/11/16 10:51:14;;;;;;;2.97;0.28;;;;;;;16.62;100.00;97230.34;7390134;19;20482;-55
2022/11/16 10:53:45;;;;;;;0.60;0.28;;;;;;;17.30;100.00;97228.69;7386636;19;20019;-55
2022/11/16 10:56:19;;;;;;;1.13;0.28;;;;;;;17.36;100.00;97223.53;7389250;19;20013;-56
2022/11/16 10:59:00;;;;;;;0.15;0.10;;;;;;;17.43;100.00;97228.31;7388014;19;20472;-55
2022/11/16 11:01:26;;;;;;;0.10;0.10;;;;;;;16.91;100.00;97227.00;7390427;19;20035;-56
2022/11/16 11:03:53;;;;;;;1.45;0.57;;;;;;;17.48;100.00;97216.03;7392122;19;20109;-56
2022/11/16 11:06:24;;;;;;;0.30;0.25;;;;;;;17.48;100.00;97218.84;7395181;19;20017;-55
2022/11/16 11:08:50;;;;;;;0.10;0.00;;;;;;;17.54;100.00;97215.78;7395012;19;20018;-61
2022/11/16 11:14:13;;;;;;;0.50;0.50;;;;;;;16.84;100.00;97208.16;7394124;19;20014;-61
2022/11/16 11:16:40;;;;;;;0.52;0.40;;;;;;;17.33;100.00;97210.63;7394514;19;20066;-61
2022/11/16 11:19:17;;;;;;;0.32;0.20;;;;;;;17.43;100.00;97214.97;7394159;19;20740;-61
2022/11/16 11:21:43;;;;;;;0.30;0.20;;;;;;;16.94;100.00;97217.38;7397394;19;20011;-61
2022/11/16 11:24:15;;;;;;;0.20;0.20;;;;;;;17.51;100.00;97234.59;7392564;19;20018;-61
2022/11/16 11:26:48;;;;;;;0.80;0.57;;;;;;;16.77;100.00;97237.09;7394390;19;20380;-61
2022/11/16 11:29:29;;;;;;;0.85;0.50;;;;;;;17.44;100.00;97229.78;7393716;19;20014;-61
2022/11/16 11:32:27;;;;;;;;;;;;;;;17.55;100.00;97232.06;7397630;19;20031;-61
2022/11/16 11:34:55;;;;;;;0.47;0.32;;;;;;;16.66;100.00;97219.44;7391943;19;19911;-61
2022/11/16 11:37:27;;;;;;;0.55;0.20;;;;;;;17.43;100.00;97222.69;7394166;19;20038;-60
2022/11/16 11:40:17;;;;;;;0.90;0.57;;;;;;;17.04;100.00;97204.13;7394224;19;20015;-61
2022/11/16 11:42:52;;;;;;;6.68;0.70;;;;;;;15.81;100.00;97205.34;7393635;19;20340;-61
2022/11/16 11:45:20;;;;;;;1.38;0.40;;;;;;;15.00;100.00;97218.09;7397057;19;20019;-61
2022/11/16 11:48:00;;;;;;;0.40;0.10;;;;;;;16.53;100.00;97214.16;7394489;19;20010;-61
2022/11/16 11:50:57;;;;;;;0.60;0.20;;;;;;;16.04;100.00;97219.91;7393229;19;20503;-61
2022/11/16 11:53:38;;;;;;;0.30;0.28;;;;;;;16.87;100.00;97212.63;7393333;19;20017;-61
2022/11/16 11:56:04;;;;;;;1.40;0.10;;;;;;;17.86;100.00;97207.75;7394337;19;20010;-61
2022/11/16 11:58:34;;;;;;;1.95;0.55;;;;;;;17.62;100.00;97217.16;7393701;19;20015;-61
2022/11/16 12:01:18;;;;;;;0.47;0.38;;;;;;;17.95;100.00;97209.81;7395095;19;20475;-61
2022/11/16 12:04:12;;;;;;;6.85;0.50;;;;;;;18.29;100.00;97191.16;7395392;19;20380;-61
2022/11/16 12:06:41;;;;;;;0.10;0.10;;;;;;;18.51;100.00;97190.00;7393451;19;20018;-61
2022/11/16 12:09:27;;;;;;;0.40;0.30;;;;;;;18.13;100.00;97183.00;7393730;19;20042;-61
2022/11/16 12:12:13;;;;;;;0.10;0.10;;;;;;;18.78;100.00;97180.03;7394383;19;20011;-61
2022/11/16 12:14:58;;;;;;;0.10;0.00;;;;;;;19.15;100.00;97176.97;7392124;19;20014;-61
2022/11/16 12:17:39;;;;;;;0.10;0.00;;;;;;;18.80;100.00;97177.34;7393740;19;20609;-61
2022/11/16 12:20:31;;;;;;;0.38;0.38;;;;;;;18.58;100.00;97170.13;7393642;19;20018;-61
2022/11/16 12:23:16;;;;;;;;;;;;;;;18.70;100.00;97161.78;7392376;19;20039;-61
2022/11/16 12:25:52;;;;;;;0.25;0.10;;;;;;;18.81;100.00;97158.38;7391440;19;19947;-61
2022/11/16 12:28:24;;;;;;;3.60;0.38;;;;;;;18.61;100.00;97149.19;7390260;19;20471;-61
2022/11/16 12:31:28;;;;;;;0.55;0.38;;;;;;;17.08;100.00;97157.38;7391830;19;20017;-61
2022/11/16 12:34:24;;;;;;;0.17;0.10;;;;;;;18.14;100.00;97147.13;7393848;19;20018;-61